createdAt,value
2022-09-24T00:00:53.518Z,6.47
2022-09-24T00:01:56.832Z,7.40
2022-09-24T00:02:59.310Z,6.17
2022-09-24T00:04:05.250Z,7.53
2022-09-24T00:05:07.723Z,9.13
2022-09-24T00:06:09.914Z,6.80
2022-09-24T00:07:12.076Z,7.60
2022-09-24T00:08:16.535Z,7.03
2022-09-24T00:09:22.137Z,9.60
2022-09-24T00:10:24.427Z,6.20
2022-09-24T00:11:28.786Z,8.70
2022-09-24T00:12:30.978Z,6.80
2022-09-24T00:13:35.111Z,6.53
2022-09-24T00:14:37.256Z,6.20
2022-09-24T00:15:45.377Z,7.17
2022-09-24T00:16:47.581Z,7.17
2022-09-24T00:17:49.693Z,7.33
2022-09-24T00:18:52.335Z,6.83
2022-09-24T00:19:54.462Z,6.83
2022-09-24T00:20:56.692Z,6.83
2022-09-24T00:21:58.875Z,6.50
2022-09-24T00:23:01.837Z,6.27
2022-09-24T00:24:36.147Z,7.80
2022-09-24T00:26:02.523Z,8.30
2022-09-24T00:27:06.237Z,6.70
2022-09-24T00:28:09.501Z,7.37
2022-09-24T00:29:14.739Z,8.10
2022-09-24T00:30:16.905Z,6.33
2022-09-24T00:31:19.150Z,6.17
2022-09-24T00:32:24.347Z,7.07
2022-09-24T00:33:28.518Z,5.70
2022-09-24T00:34:30.830Z,6.10
2022-09-24T00:35:33.829Z,7.97
2022-09-24T00:36:35.961Z,6.20
2022-09-24T00:37:38.131Z,6.93
2022-09-24T00:38:40.326Z,6.77
2022-09-24T00:39:42.521Z,6.87
2022-09-24T00:40:45.228Z,6.60
2022-09-24T00:41:49.147Z,6.13
2022-09-24T00:42:51.429Z,6.13
2022-09-24T00:43:55.828Z,6.47
2022-09-24T00:44:58.322Z,6.50
2022-09-24T00:46:16.661Z,7.83
2022-09-24T00:47:27.690Z,5.97
2022-09-24T00:48:30.433Z,7.77
2022-09-24T00:49:35.346Z,6.13
2022-09-24T00:50:37.570Z,5.90
2022-09-24T00:51:42.771Z,6.10
2022-09-24T00:52:49.913Z,7.50
2022-09-24T00:54:04.629Z,5.80
2022-09-24T00:55:08.404Z,5.93
2022-09-24T00:56:15.675Z,6.50
2022-09-24T00:57:18.311Z,7.03
2022-09-24T00:58:23.131Z,6.43
2022-09-24T00:59:25.693Z,8.00
2022-09-24T01:00:27.956Z,5.93
2022-09-24T01:01:30.211Z,6.07
2022-09-24T01:02:38.540Z,5.90
2022-09-24T01:03:42.532Z,6.33
2022-09-24T01:04:44.691Z,6.87
2022-09-24T01:05:47.294Z,6.43
2022-09-24T01:06:50.216Z,5.80
2022-09-24T01:07:52.473Z,6.20
2022-09-24T01:08:56.910Z,5.83
2022-09-24T01:09:59.439Z,6.57
2022-09-24T01:11:12.394Z,9.67
2022-09-24T01:12:30.745Z,7.30
2022-09-24T01:14:01.565Z,6.63
2022-09-24T01:15:22.195Z,6.53
2022-09-24T01:16:54.423Z,7.83
2022-09-24T01:18:13.140Z,7.40
2022-09-24T01:19:43.755Z,6.27
2022-09-24T01:21:20.090Z,6.73
2022-09-24T01:22:57.740Z,7.97
2022-09-24T01:24:32.147Z,5.93
2022-09-24T01:25:40.010Z,6.77
2022-09-24T01:27:03.293Z,6.17
2022-09-24T01:28:33.165Z,7.33
2022-09-24T01:30:04.369Z,6.47
2022-09-24T01:31:15.631Z,6.10
2022-09-24T01:32:44.908Z,9.13
2022-09-24T01:33:53.801Z,5.90
2022-09-24T01:35:02.084Z,5.70
2022-09-24T01:36:08.539Z,7.97
2022-09-24T01:37:14.813Z,7.23
2022-09-24T01:38:27.299Z,6.10
2022-09-24T01:39:31.884Z,6.43
2022-09-24T01:40:35.557Z,6.40
2022-09-24T01:41:40.134Z,6.13
2022-09-24T01:42:45.085Z,5.73
2022-09-24T01:43:48.534Z,5.80
2022-09-24T01:44:54.305Z,6.43
2022-09-24T01:45:59.260Z,5.87
2022-09-24T01:47:01.598Z,7.20
2022-09-24T01:48:04.946Z,5.27
2022-09-24T01:49:07.718Z,5.70
2022-09-24T01:50:14.055Z,7.43
2022-09-24T01:51:26.749Z,5.90
2022-09-24T01:52:36.719Z,6.33
2022-09-24T01:53:49.961Z,6.73
2022-09-24T01:54:54.743Z,5.97
2022-09-24T01:56:06.661Z,6.70
2022-09-24T01:57:33.837Z,7.83
2022-09-24T01:59:23.963Z,7.43
2022-09-24T02:00:27.113Z,6.07
2022-09-24T02:01:37.843Z,6.60
2022-09-24T02:02:53.185Z,6.10
2022-09-24T02:04:03.819Z,5.80
2022-09-24T02:05:30.981Z,6.23
2022-09-24T02:06:42.879Z,7.73
2022-09-24T02:08:02.462Z,6.70
2022-09-24T02:09:05.039Z,6.37
2022-09-24T02:10:19.373Z,5.70
2022-09-24T02:11:23.526Z,5.80
2022-09-24T02:12:38.461Z,5.70
2022-09-24T02:13:49.305Z,6.10
2022-09-24T02:14:57.874Z,6.00
2022-09-24T02:16:05.894Z,5.83
2022-09-24T02:17:10.431Z,6.17
2022-09-24T02:18:16.550Z,6.13
2022-09-24T02:19:27.881Z,6.70
2022-09-24T02:20:31.425Z,6.03
2022-09-24T02:21:36.032Z,7.47
2022-09-24T02:22:39.925Z,8.37
2022-09-24T02:23:47.501Z,7.40
2022-09-24T02:24:53.423Z,5.63
2022-09-24T02:26:00.089Z,6.17
2022-09-24T02:27:02.318Z,6.50
2022-09-24T02:28:04.477Z,6.40
2022-09-24T02:29:06.805Z,6.63
2022-09-24T02:30:11.019Z,6.93
2022-09-24T02:31:34.893Z,6.67
2022-09-24T02:32:40.593Z,6.57
2022-09-24T02:34:05.742Z,6.80
2022-09-24T02:35:10.411Z,7.50
2022-09-24T02:36:12.746Z,5.60
2022-09-24T02:37:17.157Z,6.63
2022-09-24T02:38:20.758Z,7.23
2022-09-24T02:39:23.165Z,5.93
2022-09-24T02:40:25.726Z,5.83
2022-09-24T02:41:28.760Z,5.40
2022-09-24T02:42:31.552Z,6.23
2022-09-24T02:43:35.084Z,6.57
2022-09-24T02:44:37.233Z,5.17
2022-09-24T02:45:39.377Z,5.43
2022-09-24T02:46:41.857Z,6.07
2022-09-24T02:47:44.023Z,5.80
2022-09-24T02:48:47.305Z,6.03
2022-09-24T02:49:49.454Z,7.90
2022-09-24T02:50:54.295Z,5.90
2022-09-24T02:51:57.419Z,5.87
2022-09-24T02:52:59.589Z,6.80
2022-09-24T02:54:02.281Z,5.90
2022-09-24T02:55:05.445Z,6.17
2022-09-24T02:56:08.142Z,7.77
2022-09-24T02:57:10.830Z,6.00
2022-09-24T02:58:12.980Z,5.83
2022-09-24T02:59:15.177Z,5.57
2022-09-24T03:00:18.385Z,6.43
2022-09-24T03:01:20.703Z,5.27
2022-09-24T03:02:23.113Z,6.93
2022-09-24T03:03:26.744Z,7.37
2022-09-24T03:04:30.810Z,6.33
2022-09-24T03:05:33.004Z,7.07
2022-09-24T03:06:35.739Z,5.93
2022-09-24T03:07:37.863Z,6.07
2022-09-24T03:08:44.902Z,6.17
2022-09-24T03:09:47.045Z,7.23
2022-09-24T03:10:51.217Z,5.83
2022-09-24T03:11:53.384Z,6.63
2022-09-24T03:12:56.771Z,5.90
2022-09-24T03:14:00.048Z,5.20
2022-09-24T03:15:02.166Z,6.67
2022-09-24T03:16:06.601Z,5.90
2022-09-24T03:17:08.803Z,5.73
2022-09-24T03:18:11.014Z,5.20
2022-09-24T03:19:13.151Z,5.73
2022-09-24T03:20:15.471Z,5.17
2022-09-24T03:21:20.352Z,5.50
2022-09-24T03:22:22.510Z,5.77
2022-09-24T03:23:25.135Z,6.20
2022-09-24T03:24:27.279Z,5.53
2022-09-24T03:25:32.118Z,6.40
2022-09-24T03:26:34.339Z,5.67
2022-09-24T03:27:36.558Z,5.57
2022-09-24T03:28:39.082Z,5.03
2022-09-24T03:30:02.305Z,6.93
2022-09-24T03:31:05.380Z,5.77
2022-09-24T03:32:07.619Z,5.77
2022-09-24T03:33:09.739Z,6.00
2022-09-24T03:34:12.028Z,5.23
2022-09-24T03:35:15.787Z,6.17
2022-09-24T03:36:23.622Z,5.53
2022-09-24T03:37:25.759Z,6.17
2022-09-24T03:38:29.428Z,5.07
2022-09-24T03:39:31.624Z,5.07
2022-09-24T03:40:34.047Z,5.73
2022-09-24T03:41:36.308Z,6.10
2022-09-24T03:42:38.477Z,6.03
2022-09-24T03:43:41.282Z,7.17
2022-09-24T03:44:44.200Z,5.30
2022-09-24T03:45:46.491Z,6.23
2022-09-24T03:46:50.497Z,5.33
2022-09-24T03:47:52.664Z,4.70
2022-09-24T03:48:54.837Z,5.83
2022-09-24T03:49:57.618Z,5.17
2022-09-24T03:51:10.251Z,5.13
2022-09-24T03:52:13.402Z,5.43
2022-09-24T03:53:16.769Z,5.90
2022-09-24T03:54:18.986Z,5.10
2022-09-24T03:55:21.120Z,4.83
2022-09-24T03:56:23.246Z,5.90
2022-09-24T03:57:25.530Z,5.10
2022-09-24T03:58:27.984Z,6.43
2022-09-24T03:59:30.300Z,7.23
2022-09-24T04:00:34.458Z,5.17
2022-09-24T04:01:40.134Z,6.00
2022-09-24T04:02:43.086Z,5.87
2022-09-24T04:03:45.289Z,5.17
2022-09-24T04:04:47.524Z,5.97
2022-09-24T04:05:53.327Z,7.10
2022-09-24T04:06:55.461Z,5.83
2022-09-24T04:07:59.474Z,5.40
2022-09-24T04:09:02.203Z,4.93
2022-09-24T04:10:07.223Z,7.57
2022-09-24T04:11:09.411Z,5.30
2022-09-24T04:12:12.245Z,5.40
2022-09-24T04:13:15.359Z,5.53
2022-09-24T04:14:17.531Z,6.17
2022-09-24T04:15:20.034Z,5.53
2022-09-24T04:16:22.340Z,5.43
2022-09-24T04:17:27.969Z,5.87
2022-09-24T04:18:30.212Z,7.53
2022-09-24T04:19:32.332Z,5.70
2022-09-24T04:20:34.951Z,5.40
2022-09-24T04:21:37.826Z,5.83
2022-09-24T04:22:40.042Z,5.60
2022-09-24T04:23:42.481Z,6.63
2022-09-24T04:24:44.787Z,5.87
2022-09-24T04:25:46.918Z,5.80
2022-09-24T04:26:50.508Z,5.73
2022-09-24T04:27:55.384Z,5.60
2022-09-24T04:28:59.332Z,6.00
2022-09-24T04:30:02.513Z,5.43
2022-09-24T04:31:04.876Z,5.67
2022-09-24T04:32:07.127Z,6.30
2022-09-24T04:33:09.263Z,4.93
2022-09-24T04:34:11.677Z,5.93
2022-09-24T04:35:13.894Z,6.40
2022-09-24T04:36:16.877Z,6.07
2022-09-24T04:37:19.064Z,5.63
2022-09-24T04:38:21.479Z,6.80
2022-09-24T04:39:26.821Z,5.50
2022-09-24T04:40:30.149Z,6.00
2022-09-24T04:41:32.386Z,5.43
2022-09-24T04:42:34.515Z,5.70
2022-09-24T04:43:37.156Z,5.17
2022-09-24T04:44:41.786Z,5.57
2022-09-24T04:45:45.103Z,5.73
2022-09-24T04:46:47.385Z,5.83
2022-09-24T04:47:57.397Z,5.57
2022-09-24T04:49:00.068Z,5.87
2022-09-24T04:50:02.947Z,5.80
2022-09-24T04:51:08.914Z,6.33
2022-09-24T04:52:11.530Z,6.07
2022-09-24T04:53:14.436Z,5.90
2022-09-24T04:54:18.272Z,5.43
2022-09-24T04:55:21.236Z,5.80
2022-09-24T04:56:23.356Z,5.47
2022-09-24T04:57:26.178Z,5.27
2022-09-24T04:58:28.618Z,6.60
2022-09-24T04:59:31.139Z,5.97
2022-09-24T05:00:33.638Z,6.00
2022-09-24T05:01:36.221Z,6.13
2022-09-24T05:02:38.539Z,5.37
2022-09-24T05:03:41.237Z,5.87
2022-09-24T05:04:44.209Z,5.50
2022-09-24T05:05:46.388Z,6.20
2022-09-24T05:06:48.641Z,6.07
2022-09-24T05:07:51.414Z,7.10
2022-09-24T05:08:53.592Z,6.00
2022-09-24T05:09:55.732Z,5.87
2022-09-24T05:10:57.897Z,5.10
2022-09-24T05:12:00.051Z,5.53
2022-09-24T05:13:02.422Z,6.50
2022-09-24T05:14:06.154Z,6.00
2022-09-24T05:15:08.702Z,6.67
2022-09-24T05:16:10.972Z,6.57
2022-09-24T05:17:13.142Z,6.37
2022-09-24T05:18:15.264Z,5.47
2022-09-24T05:19:17.892Z,5.27
2022-09-24T05:20:20.447Z,7.60
2022-09-24T05:21:22.615Z,7.57
2022-09-24T05:22:27.567Z,5.93
2022-09-24T05:23:29.745Z,5.40
2022-09-24T05:24:32.107Z,5.80
2022-09-24T05:25:34.257Z,6.43
2022-09-24T05:26:55.327Z,5.50
2022-09-24T05:27:57.508Z,5.80
2022-09-24T05:28:59.647Z,5.93
2022-09-24T05:30:02.375Z,5.13
2022-09-24T05:31:04.699Z,6.50
2022-09-24T05:32:09.161Z,6.13
2022-09-24T05:33:11.475Z,7.83
2022-09-24T05:34:14.397Z,5.70
2022-09-24T05:35:16.617Z,5.87
2022-09-24T05:36:19.659Z,5.50
2022-09-24T05:37:21.816Z,7.37
2022-09-24T05:38:24.652Z,5.70
2022-09-24T05:39:32.835Z,6.07
2022-09-24T05:40:48.297Z,5.70
2022-09-24T05:41:50.532Z,8.57
2022-09-24T05:42:59.502Z,5.77
2022-09-24T05:44:01.700Z,6.20
2022-09-24T05:45:05.170Z,5.83
2022-09-24T05:46:07.355Z,6.50
2022-09-24T05:47:10.284Z,5.90
2022-09-24T05:48:12.827Z,5.50
2022-09-24T05:49:14.965Z,7.30
2022-09-24T05:50:17.152Z,5.97
2022-09-24T05:51:19.301Z,5.83
2022-09-24T05:52:21.445Z,7.20
2022-09-24T05:53:24.147Z,5.53
2022-09-24T05:54:26.532Z,6.57
2022-09-24T05:55:32.195Z,5.57
2022-09-24T05:56:34.770Z,5.70
2022-09-24T05:57:37.070Z,7.40
2022-09-24T05:58:39.232Z,6.23
2022-09-24T05:59:41.370Z,6.50
2022-09-24T06:00:45.964Z,5.50
2022-09-24T06:01:49.601Z,5.60
2022-09-24T06:02:51.867Z,6.13
2022-09-24T06:03:54.141Z,6.30
2022-09-24T06:04:56.257Z,5.70
2022-09-24T06:06:02.355Z,6.50
2022-09-24T06:07:04.900Z,6.50
2022-09-24T06:08:08.763Z,5.67
2022-09-24T06:09:11.235Z,5.63
2022-09-24T06:10:13.640Z,6.43
2022-09-24T06:11:15.794Z,6.23
2022-09-24T06:12:18.140Z,6.13
2022-09-24T06:13:21.008Z,7.07
2022-09-24T06:14:23.269Z,7.93
2022-09-24T06:15:27.382Z,6.97
2022-09-24T06:16:29.763Z,6.70
2022-09-24T06:17:32.920Z,6.07
2022-09-24T06:18:43.210Z,5.63
2022-09-24T06:19:47.395Z,6.47
2022-09-24T06:20:49.621Z,6.00
2022-09-24T06:21:52.976Z,7.17
2022-09-24T06:22:57.603Z,6.27
2022-09-24T06:23:59.781Z,5.97
2022-09-24T06:25:01.958Z,6.33
2022-09-24T06:26:07.661Z,5.87
2022-09-24T06:27:12.393Z,7.37
2022-09-24T06:28:15.374Z,6.50
2022-09-24T06:29:17.681Z,6.03
2022-09-24T06:30:19.819Z,6.43
2022-09-24T06:31:22.595Z,8.10
2022-09-24T06:32:25.357Z,5.83
2022-09-24T06:33:28.221Z,5.80
2022-09-24T06:34:30.503Z,6.03
2022-09-24T06:35:37.035Z,7.03
2022-09-24T06:36:40.685Z,5.90
2022-09-24T06:37:42.822Z,6.10
2022-09-24T06:38:45.546Z,7.07
2022-09-24T06:39:47.674Z,6.67
2022-09-24T06:40:49.885Z,8.33
2022-09-24T06:41:53.166Z,10.00
2022-09-24T06:42:57.816Z,10.10
2022-09-24T06:43:59.948Z,9.40
2022-09-24T06:45:02.246Z,8.47
2022-09-24T06:46:05.051Z,9.07
2022-09-24T06:47:07.318Z,9.67
2022-09-24T06:48:14.109Z,8.73
2022-09-24T06:49:16.497Z,8.57
2022-09-24T06:50:18.690Z,8.90
2022-09-24T06:51:21.319Z,8.23
2022-09-24T06:52:23.539Z,8.07
2022-09-24T06:53:26.274Z,7.70
2022-09-24T06:54:28.653Z,7.03
2022-09-24T06:55:30.876Z,7.77
2022-09-24T06:56:33.073Z,7.53
2022-09-24T06:57:35.229Z,8.17
2022-09-24T06:58:37.441Z,8.27
2022-09-24T06:59:39.617Z,9.20
2022-09-24T07:00:43.104Z,8.50
2022-09-24T07:01:45.410Z,8.70
2022-09-24T07:02:51.682Z,10.30
2022-09-24T07:03:53.840Z,8.43
2022-09-24T07:04:55.999Z,9.67
2022-09-24T07:06:01.876Z,9.13
2022-09-24T07:07:24.407Z,8.97
2022-09-24T07:08:26.566Z,9.70
2022-09-24T07:09:28.714Z,9.30
2022-09-24T07:10:31.499Z,9.80
2022-09-24T07:11:33.721Z,10.43
2022-09-24T07:12:37.068Z,11.30
2022-09-24T07:13:39.201Z,9.10
2022-09-24T07:14:41.325Z,9.10
2022-09-24T07:15:44.818Z,10.30
2022-09-24T07:16:47.563Z,8.47
2022-09-24T07:17:50.165Z,9.20
2022-09-24T07:18:52.307Z,10.10
2022-09-24T07:19:55.158Z,7.27
2022-09-24T07:20:57.346Z,8.40
2022-09-24T07:21:59.504Z,9.00
2022-09-24T07:23:01.729Z,7.80
2022-09-24T07:24:04.152Z,7.27
2022-09-24T07:25:11.329Z,7.10
2022-09-24T07:26:13.537Z,6.73
2022-09-24T07:27:15.717Z,7.27
2022-09-24T07:28:19.266Z,10.33
2022-09-24T07:29:21.410Z,7.47
2022-09-24T07:30:23.684Z,7.82
2022-09-24T07:31:27.564Z,6.68
2022-09-24T07:32:30.988Z,7.18
2022-09-24T07:33:33.125Z,6.35
2022-09-24T07:34:35.267Z,7.00
2022-09-24T07:35:39.210Z,6.28
2022-09-24T07:36:41.739Z,6.68
2022-09-24T07:37:43.870Z,6.60
2022-09-24T07:38:46.635Z,6.20
2022-09-24T07:39:48.832Z,7.07
2022-09-24T07:40:51.322Z,6.47
2022-09-24T07:41:54.626Z,7.63
2022-09-24T07:42:57.177Z,6.38
2022-09-24T07:43:59.736Z,6.18
2022-09-24T07:45:02.114Z,5.55
2022-09-24T07:46:04.301Z,6.38
2022-09-24T07:47:06.570Z,5.78
2022-09-24T07:48:10.523Z,6.43
2022-09-24T07:49:12.742Z,7.32
2022-09-24T07:50:15.086Z,6.18
2022-09-24T07:51:17.241Z,6.03
2022-09-24T07:52:19.406Z,5.57
2022-09-24T07:53:22.099Z,7.22
2022-09-24T07:54:24.522Z,6.72
2022-09-24T07:55:27.376Z,6.15
2022-09-24T07:56:31.801Z,5.55
2022-09-24T07:57:33.929Z,8.13
2022-09-24T07:58:36.103Z,5.82
2022-09-24T07:59:38.468Z,5.85
2022-09-24T08:00:40.704Z,5.65
2022-09-24T08:01:42.871Z,5.70
2022-09-24T08:02:46.694Z,6.05
2022-09-24T08:03:48.851Z,7.80
2022-09-24T08:04:51.059Z,6.22
2022-09-24T08:05:57.345Z,7.35
2022-09-24T08:07:01.340Z,6.38
2022-09-24T08:08:03.529Z,5.93
2022-09-24T08:09:05.824Z,5.38
2022-09-24T08:10:08.833Z,5.68
2022-09-24T08:11:13.501Z,5.20
2022-09-24T08:12:15.623Z,6.15
2022-09-24T08:13:17.971Z,6.80
2022-09-24T08:14:20.522Z,5.85
2022-09-24T08:15:22.936Z,5.88
2022-09-24T08:16:26.949Z,5.78
2022-09-24T08:17:29.212Z,5.28
2022-09-24T08:18:32.614Z,5.00
2022-09-24T08:19:34.869Z,6.93
2022-09-24T08:20:38.707Z,5.50
2022-09-24T08:21:43.461Z,6.25
2022-09-24T08:22:45.615Z,5.68
2022-09-24T08:23:48.364Z,7.35
2022-09-24T08:24:50.813Z,5.43
2022-09-24T08:25:55.048Z,5.20
2022-09-24T08:26:58.596Z,6.28
2022-09-24T08:28:07.652Z,5.60
2022-09-24T08:29:10.837Z,8.27
2022-09-24T08:30:14.727Z,8.35
2022-09-24T08:31:17.065Z,6.72
2022-09-24T08:32:19.217Z,7.22
2022-09-24T08:33:21.560Z,5.55
2022-09-24T08:34:23.915Z,5.43
2022-09-24T08:35:26.318Z,5.20
2022-09-24T08:36:28.545Z,6.20
2022-09-24T08:37:31.636Z,5.93
2022-09-24T08:38:34.224Z,4.97
2022-09-24T08:39:36.381Z,5.53
2022-09-24T08:40:51.140Z,5.00
2022-09-24T08:41:57.203Z,4.95
2022-09-24T08:43:09.885Z,6.05
2022-09-24T08:44:47.921Z,5.38
2022-09-24T08:46:14.107Z,5.63
2022-09-24T08:47:45.830Z,6.32
2022-09-24T08:48:52.934Z,5.38
2022-09-24T08:50:20.777Z,5.10
2022-09-24T08:51:23.031Z,4.70
2022-09-24T08:52:43.612Z,5.47
2022-09-24T08:53:49.883Z,6.22
2022-09-24T08:54:53.883Z,5.55
2022-09-24T08:56:00.829Z,5.05
2022-09-24T08:57:11.579Z,5.30
2022-09-24T08:58:25.962Z,5.07
2022-09-24T08:59:34.693Z,4.47
2022-09-24T09:00:45.791Z,4.93
2022-09-24T09:02:22.202Z,5.05
2022-09-24T09:03:35.438Z,7.07
2022-09-24T09:04:55.225Z,5.05
2022-09-24T09:06:04.099Z,4.88
2022-09-24T09:07:12.332Z,6.30
2022-09-24T09:08:50.474Z,6.75
2022-09-24T09:10:02.437Z,4.95
2022-09-24T09:11:08.205Z,6.07
2022-09-24T09:12:38.396Z,4.68
2022-09-24T09:13:48.868Z,4.32
2022-09-24T09:15:03.680Z,5.20
2022-09-24T09:16:19.035Z,4.85
2022-09-24T09:17:26.823Z,4.85
2022-09-24T09:18:32.870Z,5.07
2022-09-24T09:19:37.459Z,4.65
2022-09-24T09:20:43.193Z,4.70
2022-09-24T09:22:13.203Z,4.25
2022-09-24T09:23:48.780Z,4.40
2022-09-24T09:24:53.175Z,5.25
2022-09-24T09:25:57.987Z,5.68
2022-09-24T09:27:00.321Z,4.13
2022-09-24T09:28:14.285Z,4.22
2022-09-24T09:29:17.198Z,6.45
2022-09-24T09:30:21.913Z,4.03
2022-09-24T09:31:33.519Z,4.50
2022-09-24T09:33:10.490Z,4.20
2022-09-24T09:34:31.562Z,4.85
2022-09-24T09:35:47.321Z,4.68
2022-09-24T09:37:26.097Z,4.40
2022-09-24T09:38:31.312Z,6.40
2022-09-24T09:39:55.997Z,4.35
2022-09-24T09:41:20.951Z,4.57
2022-09-24T09:42:32.329Z,4.32
2022-09-24T09:43:35.485Z,5.47
2022-09-24T09:44:42.290Z,4.32
2022-09-24T09:46:04.362Z,4.25
2022-09-24T09:47:29.804Z,4.13
2022-09-24T09:48:43.687Z,5.22
2022-09-24T09:49:48.885Z,4.35
2022-09-24T09:50:56.052Z,4.80
2022-09-24T09:52:02.334Z,6.03
2022-09-24T09:53:05.754Z,4.78
2022-09-24T09:54:08.459Z,4.57
2022-09-24T09:55:28.962Z,5.22
2022-09-24T09:56:36.202Z,6.28
2022-09-24T09:57:41.459Z,3.85
2022-09-24T09:58:48.135Z,4.10
2022-09-24T09:59:53.202Z,4.13
2022-09-24T10:01:07.916Z,4.70
2022-09-24T10:02:11.948Z,4.47
2022-09-24T10:03:33.406Z,5.95
2022-09-24T10:04:35.596Z,4.25
2022-09-24T10:05:38.142Z,4.15
2022-09-24T10:06:40.268Z,3.83
2022-09-24T10:07:45.772Z,4.90
2022-09-24T10:08:48.077Z,4.40
2022-09-24T10:10:03.981Z,4.00
2022-09-24T10:11:14.934Z,4.65
2022-09-24T10:12:22.306Z,5.05
2022-09-24T10:13:26.055Z,5.28
2022-09-24T10:14:28.188Z,9.68
2022-09-24T10:15:30.389Z,9.13
2022-09-24T10:16:38.506Z,6.07
2022-09-24T10:17:41.970Z,5.68
2022-09-24T10:18:49.886Z,5.78
2022-09-24T10:19:53.098Z,4.93
2022-09-24T10:20:57.041Z,4.47
2022-09-24T10:22:10.592Z,4.40
2022-09-24T10:23:22.305Z,4.57
2022-09-24T10:24:26.647Z,4.03
2022-09-24T10:25:30.337Z,4.20
2022-09-24T10:26:55.193Z,4.40
2022-09-24T10:28:19.940Z,5.30
2022-09-24T10:29:47.170Z,4.10
2022-09-24T10:31:01.280Z,3.97
2022-09-24T10:32:05.640Z,6.85
2022-09-24T10:33:08.938Z,4.10
2022-09-24T10:34:37.526Z,4.25
2022-09-24T10:35:39.756Z,4.10
2022-09-24T10:36:53.749Z,3.92
2022-09-24T10:37:58.756Z,3.97
2022-09-24T10:39:15.587Z,4.18
2022-09-24T10:40:23.828Z,4.13
2022-09-24T10:41:28.270Z,5.28
2022-09-24T10:42:31.176Z,3.90
2022-09-24T10:43:34.205Z,5.32
2022-09-24T10:44:37.437Z,4.38
2022-09-24T10:45:49.202Z,4.10
2022-09-24T10:47:10.449Z,3.33
2022-09-24T10:48:26.946Z,3.60
2022-09-24T10:49:57.944Z,3.65
2022-09-24T10:51:28.781Z,4.10
2022-09-24T10:52:48.980Z,3.67
2022-09-24T10:54:09.728Z,3.60
2022-09-24T10:55:42.341Z,3.85
2022-09-24T10:56:51.780Z,3.75
2022-09-24T10:58:08.548Z,3.70
2022-09-24T10:59:17.901Z,4.95
2022-09-24T11:00:22.092Z,3.97
2022-09-24T11:01:41.243Z,3.67
2022-09-24T11:03:13.101Z,3.42
2022-09-24T11:04:20.507Z,4.90
2022-09-24T11:05:24.975Z,3.88
2022-09-24T11:06:45.487Z,4.03
2022-09-24T11:07:59.605Z,3.70
2022-09-24T11:09:38.004Z,3.33
2022-09-24T11:11:04.840Z,3.42
2022-09-24T11:12:35.429Z,3.35
2022-09-24T11:13:54.590Z,4.05
2022-09-24T11:15:19.428Z,3.67
2022-09-24T11:17:06.479Z,3.10
2022-09-24T11:18:26.046Z,3.03
2022-09-24T11:19:50.875Z,3.30
2022-09-24T11:21:15.027Z,3.63
2022-09-24T11:22:32.505Z,3.20
2022-09-24T11:23:49.927Z,2.95
2022-09-24T11:25:07.943Z,2.85
2022-09-24T11:26:30.341Z,4.28
2022-09-24T11:27:41.839Z,3.95
2022-09-24T11:28:49.660Z,5.13
2022-09-24T11:30:08.737Z,4.13
2022-09-24T11:31:33.901Z,4.40
2022-09-24T11:33:03.928Z,3.70
2022-09-24T11:34:44.505Z,3.70
2022-09-24T11:36:08.755Z,6.28
2022-09-24T11:37:24.054Z,3.70
2022-09-24T11:38:57.437Z,3.70
2022-09-24T11:40:42.810Z,4.13
2022-09-24T11:41:58.750Z,3.97
2022-09-24T11:43:27.325Z,3.55
2022-09-24T11:44:52.396Z,3.70
2022-09-24T11:46:07.302Z,3.45
2022-09-24T11:47:45.169Z,3.13
2022-09-24T11:49:31.730Z,3.60
2022-09-24T11:50:57.225Z,6.18
2022-09-24T11:52:11.550Z,4.45
2022-09-24T11:53:22.753Z,3.75
2022-09-24T11:54:34.747Z,3.40
2022-09-24T11:55:54.937Z,3.47
2022-09-24T11:57:26.841Z,3.47
2022-09-24T11:58:37.122Z,3.42
2022-09-24T11:59:52.446Z,3.60
2022-09-24T12:01:04.614Z,3.60
2022-09-24T12:02:20.597Z,3.50
2022-09-24T12:03:48.133Z,3.40
2022-09-24T12:04:56.138Z,5.10
2022-09-24T12:06:05.692Z,3.28
2022-09-24T12:07:16.601Z,5.88
2022-09-24T12:08:30.357Z,3.35
2022-09-24T12:09:41.293Z,4.60
2022-09-24T12:11:18.906Z,3.47
2022-09-24T12:12:27.769Z,3.38
2022-09-24T12:13:48.799Z,3.47
2022-09-24T12:14:57.471Z,4.25
2022-09-24T12:16:15.108Z,3.40
2022-09-24T12:17:24.161Z,3.38
2022-09-24T12:18:36.285Z,3.85
2022-09-24T12:19:48.228Z,3.10
2022-09-24T12:21:02.056Z,4.57
2022-09-24T12:22:05.937Z,3.17
2022-09-24T12:23:14.940Z,3.47
2022-09-24T12:24:40.231Z,3.42
2022-09-24T12:25:46.359Z,3.35
2022-09-24T12:26:52.707Z,4.25
2022-09-24T12:27:56.256Z,4.75
2022-09-24T12:29:18.962Z,3.00
2022-09-24T12:30:59.002Z,3.80
2022-09-24T12:32:30.693Z,3.28
2022-09-24T12:33:42.121Z,2.88
2022-09-24T12:35:00.912Z,4.03
2022-09-24T12:36:43.065Z,3.40
2022-09-24T12:37:48.327Z,3.45
2022-09-24T12:38:55.410Z,2.72
2022-09-24T12:40:22.971Z,3.42
2022-09-24T12:41:32.860Z,5.53
2022-09-24T12:42:42.053Z,3.10
2022-09-24T12:43:46.847Z,3.17
2022-09-24T12:44:57.522Z,2.83
2022-09-24T12:46:02.843Z,3.25
2022-09-24T12:47:07.559Z,3.10
2022-09-24T12:48:16.014Z,3.58
2022-09-24T12:49:27.365Z,4.57
2022-09-24T12:50:36.323Z,3.30
2022-09-24T12:51:39.484Z,3.10
2022-09-24T12:52:43.412Z,3.53
2022-09-24T12:53:57.394Z,2.72
2022-09-24T12:55:03.056Z,3.30
2022-09-24T12:56:07.225Z,2.90
2022-09-24T12:57:15.318Z,2.75
2022-09-24T12:58:40.135Z,2.88
2022-09-24T12:59:58.150Z,3.00
2022-09-24T13:01:31.368Z,4.40
2022-09-24T13:02:46.316Z,5.32
2022-09-24T13:04:05.850Z,3.92
2022-09-24T13:05:29.200Z,3.55
2022-09-24T13:06:37.066Z,3.63
2022-09-24T13:07:42.537Z,3.08
2022-09-24T13:08:44.777Z,2.70
2022-09-24T13:09:47.181Z,2.90
2022-09-24T13:11:07.063Z,2.60
2022-09-24T13:12:15.059Z,3.00
2022-09-24T13:13:28.633Z,3.15
2022-09-24T13:14:33.361Z,2.50
2022-09-24T13:15:38.800Z,2.60
2022-09-24T13:16:43.906Z,2.50
2022-09-24T13:17:47.440Z,2.78
2022-09-24T13:18:59.006Z,2.40
2022-09-24T13:20:06.749Z,2.42
2022-09-24T13:21:19.134Z,2.97
2022-09-24T13:22:33.620Z,2.40
2022-09-24T13:23:35.674Z,4.85
2022-09-24T13:24:50.044Z,3.63
2022-09-24T13:26:05.605Z,3.47
2022-09-24T13:27:22.799Z,3.10
2022-09-24T13:28:38.310Z,3.42
2022-09-24T13:29:44.023Z,3.20
2022-09-24T13:30:53.323Z,2.40
2022-09-24T13:32:02.966Z,2.80
2022-09-24T13:33:26.916Z,2.50
2022-09-24T13:34:32.300Z,4.03
2022-09-24T13:35:42.234Z,3.10
2022-09-24T13:37:10.781Z,2.70
2022-09-24T13:38:22.417Z,2.72
2022-09-24T13:39:46.132Z,2.53
2022-09-24T13:41:41.297Z,3.15
2022-09-24T13:43:07.367Z,3.15
2022-09-24T13:44:38.152Z,2.70
2022-09-24T13:45:45.286Z,2.47
2022-09-24T13:46:59.955Z,2.40
2022-09-24T13:48:06.111Z,3.15
2022-09-24T13:49:19.108Z,2.70
2022-09-24T13:50:35.908Z,4.00
2022-09-24T13:51:41.450Z,2.83
2022-09-24T13:53:16.632Z,3.92
2022-09-24T13:54:25.218Z,2.55
2022-09-24T13:55:34.554Z,2.70
2022-09-24T13:56:36.796Z,2.72
2022-09-24T13:57:49.760Z,2.50
2022-09-24T13:59:05.006Z,2.58
2022-09-24T14:00:18.205Z,2.70
2022-09-24T14:01:25.022Z,2.60
2022-09-24T14:02:32.028Z,2.75
2022-09-24T14:03:38.878Z,3.60
2022-09-24T14:04:43.191Z,2.53
2022-09-24T14:05:45.795Z,2.58
2022-09-24T14:06:53.743Z,2.55
2022-09-24T14:07:59.538Z,2.72
2022-09-24T14:09:02.098Z,2.78
2022-09-24T14:10:13.562Z,2.70
2022-09-24T14:11:19.227Z,2.60
2022-09-24T14:12:22.552Z,2.58
2022-09-24T14:13:25.374Z,2.70
2022-09-24T14:14:30.090Z,2.13
2022-09-24T14:15:32.347Z,2.60
2022-09-24T14:16:35.141Z,3.20
2022-09-24T14:17:37.431Z,2.95
2022-09-24T14:18:40.462Z,3.40
2022-09-24T14:19:43.368Z,3.20
2022-09-24T14:20:56.177Z,3.70
2022-09-24T14:21:59.143Z,3.30
2022-09-24T14:23:03.594Z,3.70
2022-09-24T14:24:09.285Z,2.83
2022-09-24T14:25:19.243Z,2.60
2022-09-24T14:26:25.860Z,2.83
2022-09-24T14:27:31.422Z,3.83
2022-09-24T14:28:34.818Z,2.50
2022-09-24T14:29:52.413Z,2.40
2022-09-24T14:30:56.330Z,2.63
2022-09-24T14:32:01.556Z,2.50
2022-09-24T14:33:08.362Z,2.53
2022-09-24T14:34:25.144Z,2.50
2022-09-24T14:35:31.532Z,2.97
2022-09-24T14:36:36.332Z,2.50
2022-09-24T14:37:45.929Z,2.30
2022-09-24T14:38:59.520Z,2.33
2022-09-24T14:40:12.256Z,2.20
2022-09-24T14:41:20.162Z,2.60
2022-09-24T14:42:32.115Z,2.60
2022-09-24T14:44:10.063Z,2.70
2022-09-24T14:45:29.649Z,2.30
2022-09-24T14:46:36.154Z,3.17
2022-09-24T14:47:38.406Z,3.05
2022-09-24T14:48:43.531Z,4.07
2022-09-24T14:49:48.281Z,3.13
2022-09-24T14:50:50.494Z,2.40
2022-09-24T14:51:58.270Z,2.33
2022-09-24T14:53:01.042Z,2.60
2022-09-24T14:54:20.262Z,2.50
2022-09-24T14:55:35.497Z,2.63
2022-09-24T14:56:37.698Z,2.90
2022-09-24T14:57:43.338Z,2.90
2022-09-24T14:58:48.915Z,2.58
2022-09-24T14:59:52.472Z,3.03
2022-09-24T15:00:58.246Z,2.40
2022-09-24T15:02:22.250Z,3.17
2022-09-24T15:03:56.965Z,2.60
2022-09-24T15:05:07.081Z,3.42
2022-09-24T15:06:20.342Z,3.08
2022-09-24T15:07:25.480Z,2.35
2022-09-24T15:08:28.612Z,2.90
2022-09-24T15:09:31.945Z,2.50